»·PEaware :: N24DF KSBP-KHAF

N24DF :: KSBP-KHAF

FLIGHT INFORMATION

Flight Status: Arrived
Operator: Privately registered:
United States
More flights under this callsign
Pilot: David F. (17152)
Aircraft: CESSNA 172 SKYHAWK
(C172)
More flights by this aircraft type
Origin: KSBP San Luis Co Regl
United States
Destination: KHAF Half Moon Bay
United States
More flights between these airports :: More routes between these airports
Route: +CREPE3 FRAMS V27 HADLY
File this flight plan on PilotEdge
Remarks: DOF / 180805 REG / N24DF EET / KZOA0018 PER / A RMK / TCAS SIMBRIEF
Altitude:
(Current/Filed)
8,000ft
Speed:
(Current/Filed)
111kts
Departed: 04-Aug-18 07:03 PM
Arrived: 04-Aug-18 08:40 PM
Distance/Time
Traveled:
163nm/1:37
Distance/Time
To Go:
Arrived

Flight Plot

Page will automatically refresh every two minutes.

Flight plan parsing failed; only flown route is shown


Map Options




Map Legend


Flown Route
Filed Route
Departure Airport
Arrival Airport
Navaid (VOR, NDB)
Fix

Horizontal Profiles

Position Reports

Time Latitude Longitude Heading Altitude Ground
Speed
04-Aug-18 18:38 35.237155 -120.637014 125 216ft 0kts
04-Aug-18 18:39 35.237155 -120.637014 125 216ft 0kts
04-Aug-18 18:40 35.237155 -120.637014 125 216ft 0kts
04-Aug-18 18:41 35.237155 -120.637014 125 216ft 0kts
04-Aug-18 18:42 35.237155 -120.637014 125 216ft 0kts
04-Aug-18 18:43 35.237155 -120.637014 125 216ft 0kts
04-Aug-18 18:44 35.237155 -120.637014 125 216ft 0kts
04-Aug-18 18:45 35.237154 -120.637013 125 216ft 0kts
04-Aug-18 18:46 35.237154 -120.637013 125 216ft 0kts
04-Aug-18 18:47 35.237154 -120.637013 125 216ft 0kts
04-Aug-18 18:48 35.237154 -120.637013 125 216ft 0kts
04-Aug-18 18:49 35.237154 -120.637013 125 216ft 0kts
04-Aug-18 18:50 35.237154 -120.637013 125 216ft 0kts
04-Aug-18 18:51 35.237154 -120.637013 125 216ft 0kts
04-Aug-18 18:52 35.237154 -120.637013 125 216ft 0kts
04-Aug-18 18:53 35.237154 -120.637013 125 216ft 0kts
04-Aug-18 18:54 35.237154 -120.637013 125 216ft 0kts
04-Aug-18 18:55 35.237154 -120.637013 125 216ft 0kts
04-Aug-18 18:56 35.236989 -120.636850 180 216ft 0kts
04-Aug-18 18:57 35.237678 -120.636959 263 216ft 7kts
04-Aug-18 18:58 35.235668 -120.636126 125 216ft 15kts
04-Aug-18 18:59 35.233883 -120.633037 125 216ft 13kts
04-Aug-18 19:00 35.233144 -120.632388 217 216ft 0kts
04-Aug-18 19:01 35.233143 -120.632388 218 216ft 0kts
04-Aug-18 19:02 35.233143 -120.632388 218 216ft 0kts
04-Aug-18 19:03 35.233143 -120.632388 218 216ft 0kts
04-Aug-18 19:04 35.234089 -120.635586 303 216ft 56kts
04-Aug-18 19:05 35.243401 -120.653367 296 1019ft 68kts
04-Aug-18 19:06 35.251900 -120.674254 293 1830ft 70kts
04-Aug-18 19:07 35.260681 -120.696135 295 2548ft 74kts
04-Aug-18 19:08 35.270509 -120.719049 295 3432ft 77kts
04-Aug-18 19:09 35.285000 -120.736011 353 4299ft 83kts
04-Aug-18 19:10 35.299880 -120.753082 299 5110ft 79kts
04-Aug-18 19:11 35.311958 -120.775869 301 5879ft 80kts
04-Aug-18 19:12 35.324773 -120.798494 302 6567ft 84kts
04-Aug-18 19:13 35.339522 -120.823695 303 7075ft 94kts
04-Aug-18 19:14 35.355068 -120.849913 303 7577ft 95kts
04-Aug-18 19:15 35.370754 -120.876352 304 7997ft 101kts
04-Aug-18 19:16 35.387682 -120.906966 280 7999ft 111kts
04-Aug-18 19:17 35.372648 -120.939441 278 7993ft 112kts
04-Aug-18 19:18 35.389061 -120.972074 304 8001ft 112kts
04-Aug-18 19:19 35.407737 -121.002866 305 8002ft 112kts
04-Aug-18 19:20 35.426807 -121.033305 305 8003ft 112kts
04-Aug-18 19:21 35.445821 -121.063329 305 8004ft 110kts
04-Aug-18 19:22 35.464595 -121.092939 305 8005ft 109kts
04-Aug-18 19:23 35.483588 -121.122960 305 8006ft 111kts
04-Aug-18 19:24 35.502560 -121.152909 305 8006ft 110kts
04-Aug-18 19:25 35.521355 -121.182589 305 8008ft 109kts
04-Aug-18 19:26 35.539965 -121.211995 305 8007ft 108kts
04-Aug-18 19:27 35.558502 -121.241320 304 8007ft 108kts
04-Aug-18 19:28 35.577050 -121.270681 304 8008ft 109kts
04-Aug-18 19:29 35.595612 -121.300079 304 8006ft 108kts
04-Aug-18 19:30 35.614088 -121.329386 304 8008ft 108kts
04-Aug-18 19:31 35.634028 -121.357033 326 8004ft 112kts
04-Aug-18 19:32 35.662785 -121.372651 329 8005ft 113kts
04-Aug-18 19:33 35.691847 -121.387857 330 8006ft 113kts
04-Aug-18 19:34 35.720955 -121.402966 330 8007ft 113kts
04-Aug-18 19:35 35.749948 -121.417980 330 8007ft 113kts
04-Aug-18 19:36 35.778674 -121.432858 330 8005ft 113kts
04-Aug-18 19:37 35.807663 -121.447890 330 8010ft 113kts
04-Aug-18 19:38 35.836628 -121.462903 330 8015ft 113kts
04-Aug-18 19:39 35.865745 -121.478014 329 8031ft 114kts
04-Aug-18 19:40 35.895263 -121.493329 329 8048ft 116kts
04-Aug-18 19:41 35.925091 -121.508834 330 8064ft 117kts
04-Aug-18 19:42 35.955114 -121.524448 329 8077ft 117kts
04-Aug-18 19:43 35.985396 -121.540223 330 8089ft 118kts
04-Aug-18 19:44 36.015881 -121.556117 330 8097ft 119kts
04-Aug-18 19:45 36.041501 -121.569468 330 8099ft 120kts
04-Aug-18 19:46 36.077480 -121.588248 330 8102ft 121kts
04-Aug-18 19:47 36.107803 -121.604088 329 8104ft 121kts
04-Aug-18 19:48 36.133711 -121.617630 329 8106ft 121kts
04-Aug-18 19:49 36.170044 -121.636643 329 8109ft 122kts
04-Aug-18 19:50 36.194133 -121.653738 317 8114ft 119kts
04-Aug-18 19:51 36.221792 -121.677655 318 8006ft 126kts
04-Aug-18 19:52 36.254651 -121.706033 317 7999ft 121kts
04-Aug-18 19:53 36.277109 -121.725489 317 8001ft 121kts
04-Aug-18 19:54 36.304770 -121.749462 317 7999ft 121kts
04-Aug-18 19:55 36.332380 -121.773415 317 8002ft 121kts
04-Aug-18 19:56 36.359983 -121.797368 317 8000ft 121kts
04-Aug-18 19:57 36.387394 -121.821159 317 8001ft 120kts
04-Aug-18 19:58 36.414671 -121.844886 316 8000ft 119kts
04-Aug-18 19:59 36.441573 -121.868302 317 7999ft 116kts
04-Aug-18 20:00 36.467953 -121.891449 316 7998ft 115kts
04-Aug-18 20:01 36.494066 -121.914599 316 8000ft 116kts
04-Aug-18 20:02 36.520696 -121.938246 317 7997ft 118kts
04-Aug-18 20:03 36.547546 -121.961778 316 7999ft 118kts
04-Aug-18 20:04 36.574385 -121.985322 317 8000ft 118kts
04-Aug-18 20:05 36.601183 -122.008849 316 8000ft 118kts
04-Aug-18 20:06 36.628138 -122.032541 317 7999ft 118kts
04-Aug-18 20:07 36.655103 -122.056249 317 7998ft 119kts
04-Aug-18 20:08 36.682104 -122.080012 317 7997ft 119kts
04-Aug-18 20:09 36.709133 -122.103815 317 7997ft 119kts
04-Aug-18 20:10 36.736207 -122.127791 317 7997ft 119kts
04-Aug-18 20:11 36.763220 -122.151594 317 7998ft 119kts
04-Aug-18 20:12 36.790192 -122.175422 317 7999ft 118kts
04-Aug-18 20:13 36.817132 -122.199238 317 7997ft 119kts
04-Aug-18 20:14 36.844154 -122.223151 317 7995ft 119kts
04-Aug-18 20:15 36.871573 -122.246460 321 7994ft 120kts
04-Aug-18 20:16 36.900691 -122.266740 324 7994ft 120kts
04-Aug-18 20:17 36.929889 -122.286740 324 7996ft 119kts
04-Aug-18 20:18 36.958756 -122.306590 324 7998ft 118kts
04-Aug-18 20:19 36.987399 -122.326095 325 8002ft 116kts
04-Aug-18 20:20 37.015297 -122.344983 326 7873ft 113kts
04-Aug-18 20:21 37.043432 -122.364145 326 7365ft 116kts
04-Aug-18 20:22 37.071774 -122.383449 326 6854ft 116kts
04-Aug-18 20:23 37.088376 -122.412690 336 6309ft 118kts
04-Aug-18 20:24 37.117888 -122.429261 331 5806ft 117kts
04-Aug-18 20:25 37.147379 -122.446543 331 5301ft 117kts
04-Aug-18 20:26 37.176961 -122.463946 332 4798ft 118kts
04-Aug-18 20:27 37.206799 -122.481526 332 4295ft 119kts
04-Aug-18 20:28 37.236741 -122.499180 332 3830ft 119kts
04-Aug-18 20:29 37.265973 -122.516262 340 3814ft 115kts
04-Aug-18 20:30 37.293419 -122.495163 39 3816ft 122kts
04-Aug-18 20:31 37.317778 -122.465838 40 3518ft 120kts
04-Aug-18 20:32 37.344680 -122.444828 359 3513ft 115kts
04-Aug-18 20:33 37.377549 -122.443990 357 3103ft 112kts
04-Aug-18 20:34 37.403207 -122.443840 356 2593ft 77kts
04-Aug-18 20:35 37.424832 -122.443923 357 2163ft 85kts
04-Aug-18 20:36 37.446204 -122.450950 331 1694ft 79kts
04-Aug-18 20:37 37.465796 -122.464144 330 1209ft 80kts
04-Aug-18 20:38 37.485268 -122.477350 330 729ft 75kts
04-Aug-18 20:39 37.500624 -122.486229 320 363ft 56kts
04-Aug-18 20:40 37.511633 -122.498994 318 53ft 44kts
04-Aug-18 20:41 37.516349 -122.504546 312 46ft 16kts
04-Aug-18 20:42 37.519331 -122.505870 54 46ft 11kts
04-Aug-18 20:43 37.516634 -122.501825 124 46ft 19kts
04-Aug-18 20:44 37.514702 -122.497587 31 46ft 4kts
04-Aug-18 20:45 37.515141 -122.497377 303 46ft 0kts
04-Aug-18 20:46 37.515141 -122.497377 303 46ft 0kts

Navigation Log

Ident Type
Flight plan parsing failed, navigation log unavailable